Flight Track Log - Related Links

Times and Time Zones

All times are in EDT time to prevent confusion due to time zone crossing. See the EJA929 flight status page for this flight to view local times or setup timezone preferences in your user account.

Time Position Orientation Groundspeed Altitude Reporting Facility
EDT Latitude Longitude Course Direction KTS MPH feet Rate Location/Type
Mon 12:00:39 PM 37.3500 -121.9167 141° Southeast 175 201 900  Level Northern Cal TRACON
Mon 12:01:39 PM 37.3000 -121.8667 141° Southeast 208 239 4,300 3,350 Climbing Northern Cal TRACON
Mon 12:02:39 PM 37.2667 -121.8000 122° Southeast 225 259 7,600 3,000 Climbing Northern Cal TRACON
Mon 12:03:53 PM 37.2158 -121.8347 209° Southwest 248 285 11,000 2,667 Climbing Oakland Center
Mon 12:04:54 PM 37.2722 -121.8844 325° Northwest 271 312 13,600 1,756 Climbing Oakland Center
Mon 12:05:56 PM 37.3478 -121.9286 335° Northwest 299 344 14,600 1,122 Climbing Oakland Center
Mon 12:06:57 PM 37.4386 -121.9508 349° North 336 387 15,900 1,317 Climbing Oakland Center
Mon 12:07:59 PM 37.5567 -121.9633 355° North 356 410 17,300 1,268 Climbing Oakland Center
Mon 12:09:00 PM 37.6592 -121.9725 356° North 368 423 18,500 1,171 Climbing Oakland Center
Mon 12:10:02 PM 37.7658 -121.9636 North 392 451 19,700 1,171 Climbing Oakland Center
Mon 12:11:03 PM 37.8378 -121.8625 48° Northeast 394 453 20,900 1,171 Climbing Oakland Center
Mon 12:12:05 PM 37.8753 -121.7300 70° East 401 461 22,100 1,220 Climbing Oakland Center
Mon 12:13:06 PM 37.9131 -121.5931 71° East 413 475 23,400 1,317 Climbing Oakland Center
Mon 12:14:08 PM 37.9589 -121.4264 71° East 422 486 24,800 1,258 Climbing Oakland Center
Mon 12:15:10 PM 37.9978 -121.2822 71° East 433 498 26,000 1,171 Climbing Oakland Center
Mon 12:16:11 PM 38.0381 -121.1347 71° East 443 510 27,200 1,171 Climbing Oakland Center
Mon 12:17:13 PM 38.0767 -120.9842 72° East 450 518 28,400 1,171 Climbing Oakland Center
Mon 12:18:14 PM 38.0983 -120.8250 80° East 455 524 29,600 1,122 Climbing Oakland Center
Mon 12:19:16 PM 38.1203 -120.6631 80° East 464 534 30,700 968 Climbing Oakland Center
Mon 12:20:18 PM 38.1425 -120.4961 80° East 476 548 31,600 927 Climbing Oakland Center
Mon 12:21:19 PM 38.1700 -120.2858 80° East 497 572 32,600 732 Climbing Oakland Center
Mon 12:22:21 PM 38.1925 -120.1081 81° East 507 583 33,100 484 Climbing Oakland Center
Mon 12:23:23 PM 38.2164 -119.9219 81° East 529 609 33,600 976 Climbing Oakland Center
Mon 12:24:24 PM 38.2403 -119.7372 81° East 531 611 35,100 1,463 Climbing Oakland Center
Mon 12:25:26 PM 38.2622 -119.5561 81° East 519 597 36,600 1,415 Climbing Oakland Center
Mon 12:26:27 PM 38.2844 -119.3742 81° East 508 585 38,000 1,024 Climbing Oakland Center
Mon 12:27:29 PM 38.3058 -119.1972 81° East 508 585 38,700 634 Climbing Oakland Center
Mon 12:28:30 PM 38.3278 -119.0164 81° East 516 594 39,300 780 Climbing Oakland Center
Mon 12:29:32 PM 38.3539 -118.7975 81° East 522 601 40,300 871 Climbing Oakland Center
Mon 12:30:34 PM 38.3750 -118.6156 82° East 521 600 41,100 390 Climbing Oakland Center
Mon 12:31:35 PM 38.3944 -118.4336 82° East 520 598 41,100  Level Oakland Center
Mon 12:32:37 PM 38.3933 -118.2461 90° East 529 609 41,100  Level Oakland Center
Mon 12:33:38 PM 38.3894 -118.0561 91° East 534 615 41,100  Level Oakland Center
Mon 12:34:40 PM 38.3861 -117.8653 91° East 536 617 41,100 -49 Level Oakland Center
Mon 12:35:41 PM 38.3794 -117.6725 92° East 543 625 41,000  Descending Oakland Center
Mon 12:36:18 PM 38.3767 -117.5569 92° East 542 624 41,100 61 Climbing Salt Lake Center
Mon 12:37:20 PM 38.3714 -117.3625 92° East 542 624 41,100 -48 Level Salt Lake Center
Mon 12:38:22 PM 38.3653 -117.1264 92° East 545 627 41,000 -48 Descending Salt Lake Center
Mon 12:39:25 PM 38.3586 -116.9300 92° East 547 629 41,000  Level Salt Lake Center
Mon 12:40:27 PM 38.3511 -116.7350 93° East 547 629 41,000 48 Level Salt Lake Center
Mon 12:41:29 PM 38.3450 -116.5392 92° East 549 632 41,100 48 Climbing Salt Lake Center
Mon 12:42:31 PM 38.3372 -116.3433 93° East 552 635 41,100  Level Salt Lake Center
Mon 12:43:33 PM 38.3303 -116.1483 93° East 551 634 41,100 -48 Level Salt Lake Center
Mon 12:44:35 PM 38.3228 -115.9539 93° East 550 633 41,000 -48 Descending Salt Lake Center
Mon 12:45:37 PM 38.3153 -115.7592 93° East 551 634 41,000  Level Salt Lake Center
Mon 12:46:39 PM 38.3050 -115.5275 93° East 548 631 41,000 48 Level Salt Lake Center
Mon 12:47:41 PM 38.2967 -115.3325 93° East 550 633 41,100  Climbing Salt Lake Center
Mon 12:48:43 PM 38.2886 -115.1428 93° East 546 628 41,000 -48 Descending Salt Lake Center
Mon 12:49:45 PM 38.2800 -114.9494 93° East 548 631 41,000 48 Level Salt Lake Center
Mon 12:50:47 PM 38.2697 -114.7575 94° East 547 629 41,100 48 Climbing Salt Lake Center
Mon 12:51:49 PM 38.2575 -114.5250 94° East 549 632 41,100  Level Salt Lake Center
Mon 12:52:51 PM 38.2472 -114.3325 94° East 546 628 41,100  Level Salt Lake Center
Mon 12:53:53 PM 38.2381 -114.1400 93° East 546 628 41,100  Level Salt Lake Center
Mon 12:54:55 PM 38.2267 -113.9489 94° East 543 625 41,100 -48 Level Salt Lake Center
Mon 12:55:57 PM 38.2147 -113.7575 94° East 543 625 41,000  Descending Salt Lake Center
Mon 12:56:59 PM 38.2039 -113.5661 94° East 544 626 41,100  Climbing Salt Lake Center
Mon 12:58:01 PM 38.1919 -113.3747 94° East 541 623 41,000  Descending Salt Lake Center
Mon 12:59:04 PM 38.1778 -113.1447 94° East 543 625 41,100 96 Climbing Salt Lake Center
Mon 01:00:06 PM 38.1650 -112.9511 95° East 546 628 41,200 435 Climbing Salt Lake Center
Mon 01:01:08 PM 38.1522 -112.7611 95° East 540 621 42,000 823 Climbing Salt Lake Center
Mon 01:02:10 PM 38.1406 -112.5750 94° East 529 609 42,900 484 Climbing Salt Lake Center
Mon 01:03:12 PM 38.1278 -112.3908 95° East 523 602 43,000 97 Climbing Salt Lake Center
Mon 01:04:14 PM 38.1144 -112.2039 95° East 528 608 43,100 48 Climbing Salt Lake Center
Mon 01:05:16 PM 38.1000 -112.0167 96° East 532 612 43,100  Level Salt Lake Center
Mon 01:06:18 PM 38.0844 -111.7931 95° East 530 610 43,100 242 Level Salt Lake Center
Mon 01:07:20 PM 38.0694 -111.6056 96° East 532 612 43,600 677 Climbing Salt Lake Center
Mon 01:08:22 PM 38.0544 -111.4267 96° East 517 595 44,500 677 Climbing Salt Lake Center
Mon 01:09:24 PM 38.0406 -111.2514 96° East 504 580 45,000 290 Climbing Salt Lake Center
Mon 01:10:26 PM 38.0261 -111.0758 96° East 500 575 45,100 48 Climbing Salt Lake Center
Mon 01:11:28 PM 38.0108 -110.8956 96° East 503 579 45,100  Level Salt Lake Center
Mon 01:11:58 PM 38.0003 -110.7822 97° East 504 580 45,100 -65 Level Denver Center
Mon 01:13:00 PM 37.9869 -110.6164 96° East 504 580 45,000  Descending Denver Center
Mon 01:14:02 PM 37.9706 -110.4419 97° East 504 580 45,100 48 Climbing Denver Center
Mon 01:15:04 PM 37.9567 -110.2744 96° East 501 577 45,100  Level Denver Center
Mon 01:16:06 PM 37.9392 -110.0803 96° East 497 572 45,100 -48 Level Denver Center
Mon 01:17:08 PM 37.9214 -109.8878 97° East 493 567 45,000  Descending Denver Center
Mon 01:18:10 PM 37.9056 -109.7233 97° East 491 565 45,100 48 Climbing Denver Center
Mon 01:19:12 PM 37.8872 -109.5297 97° East 493 567 45,100  Level Denver Center
Mon 01:20:14 PM 37.8717 -109.3642 97° East 494 568 45,100 -48 Level Denver Center
Mon 01:21:16 PM 37.8528 -109.1728 97° East 490 564 45,000 -48 Descending Denver Center
Mon 01:22:18 PM 37.8361 -109.0069 97° East 494 568 45,000  Level Denver Center
Mon 01:23:21 PM 37.8197 -108.8411 97° East 495 570 45,000 48 Level Denver Center
Mon 01:24:23 PM 37.8003 -108.6489 97° East 493 567 45,100 48 Climbing Denver Center
Mon 01:25:25 PM 37.7831 -108.4847 98° East 493 567 45,100 -48 Level Denver Center
Mon 01:26:27 PM 37.7625 -108.2903 98° East 496 571 45,000  Descending Denver Center
Mon 01:27:29 PM 37.7450 -108.1247 98° East 496 571 45,100 48 Climbing Denver Center
Mon 01:28:31 PM 37.7239 -107.9331 98° East 494 568 45,100  Level Denver Center
Mon 01:29:33 PM 37.7058 -107.7667 98° East 496 571 45,100  Level Denver Center
Mon 01:30:35 PM 37.6833 -107.5733 98° East 498 573 45,100 -48 Level Denver Center
Mon 01:31:37 PM 37.6533 -107.4108 103° East 495 570 45,000  Descending Denver Center
Mon 01:32:39 PM 37.6131 -107.2236 105° East 493 567 45,100 48 Climbing Denver Center
Mon 01:33:41 PM 37.5772 -107.0628 106° East 495 570 45,100  Level Denver Center
Mon 01:34:43 PM 37.5372 -106.8739 105° East 497 572 45,100  Level Denver Center
Mon 01:35:45 PM 37.5028 -106.7158 105° East 491 565 45,100 -48 Level Denver Center
Mon 01:36:47 PM 37.4681 -106.5567 105° East 492 566 45,000  Descending Denver Center
Mon 01:37:49 PM 37.4267 -106.3711 106° East 492 566 45,100 48 Climbing Denver Center
Mon 01:38:52 PM 37.3903 -106.2111 106° East 496 571 45,100  Level Denver Center
Mon 01:39:54 PM 37.3483 -106.0247 106° East 495 570 45,100 97 Level Denver Center
Mon 01:40:56 PM 37.3106 -105.8656 107° East 495 570 45,300 339 Climbing Denver Center
Mon 01:41:58 PM 37.2603 -105.6956 110° East 485 558 45,800 532 Climbing Denver Center
Mon 01:43:00 PM 37.2061 -105.5236 112° Southeast 478 550 46,400 484 Climbing Denver Center
Mon 01:44:02 PM 37.1567 -105.3792 113° Southeast 471 542 46,800 290 Climbing Denver Center
Mon 01:45:04 PM 37.1094 -105.2386 113° Southeast 463 533 47,000 145 Climbing Denver Center
Mon 01:46:06 PM 37.0639 -105.0983 112° Southeast 458 527 47,100 -48 Climbing Denver Center
Mon 01:47:09 PM 37.0053 -104.9206 112° Southeast 459 528 46,900 -339 Descending Denver Center
Mon 01:48:10 PM 36.9681 -104.7583 106° East 470 541 46,400 -439 Descending Denver Center
Mon 01:49:12 PM 36.9317 -104.6067 107° East 475 547 46,000 -484 Descending Denver Center
Mon 01:50:14 PM 36.8883 -104.4256 107° East 486 559 45,400 -435 Descending Denver Center
Mon 01:51:16 PM 36.8503 -104.2692 107° East 490 564 45,100 -145 Descending Denver Center
Mon 01:52:18 PM 36.8067 -104.0858 106° East 496 571 45,100 -48 Level Denver Center
Mon 01:53:21 PM 36.7694 -103.9300 107° East 493 567 45,000  Descending Denver Center
Mon 01:54:23 PM 36.7253 -103.7494 107° East 491 565 45,100 48 Climbing Denver Center
Mon 01:55:25 PM 36.6861 -103.5950 108° East 490 564 45,100 -47 Level Denver Center
Mon 01:56:32 PM 36.6394 -103.4033 107° East 490 564 45,000 -47 Descending Albuquerque Center
Mon 01:57:34 PM 36.5986 -103.2406 107° East 488 562 45,000  Level Albuquerque Center
Mon 01:58:35 PM 36.5575 -103.0767 107° East 491 565 45,000  Level Albuquerque Center
Mon 01:59:37 PM 36.5164 -102.9133 107° East 490 564 45,000  Level Albuquerque Center
Mon 02:00:39 PM 36.4725 -102.7400 107° East 487 560 45,000  Level Albuquerque Center
Mon 02:01:41 PM 36.4308 -102.5789 108° East 488 562 45,000 48 Level Albuquerque Center
Mon 02:02:43 PM 36.3892 -102.4206 108° East 485 558 45,100  Climbing Albuquerque Center
Mon 02:03:45 PM 36.3478 -102.2592 108° East 488 562 45,000 -48 Descending Albuquerque Center
Mon 02:04:47 PM 36.3061 -102.1006 108° East 486 559 45,000 49 Level Albuquerque Center
Mon 02:05:48 PM 36.2558 -101.9092 108° East 485 558 45,100 49 Climbing Albuquerque Center
Mon 02:06:50 PM 36.2131 -101.7483 108° East 489 563 45,100  Level Albuquerque Center
Mon 02:07:52 PM 36.1711 -101.5875 108° East 491 565 45,100  Level Albuquerque Center
Mon 02:08:54 PM 36.1275 -101.4272 109° East 490 564 45,100  Level Albuquerque Center
Mon 02:09:56 PM 36.0847 -101.2664 108° East 491 565 45,100 -48 Level Albuquerque Center
Mon 02:10:58 PM 36.0417 -101.1064 108° East 484 557 45,000  Descending Albuquerque Center
Mon 02:11:59 PM 36.0006 -100.9525 108° East 481 554 45,100  Climbing Albuquerque Center
Mon 02:13:01 PM 35.9556 -100.7919 109° East 483 556 45,000 -48 Descending Albuquerque Center
Mon 02:14:03 PM 35.9117 -100.6350 109° East 484 557 45,000  Level Albuquerque Center
Mon 02:15:05 PM 35.8603 -100.4469 109° East 482 555 45,000  Level Albuquerque Center
Mon 02:16:07 PM 35.8161 -100.2897 109° East 485 558 45,000  Level Albuquerque Center
Mon 02:17:08 PM 35.7728 -100.1331 109° East 485 558 45,000  Level Albuquerque Center
Mon 02:18:10 PM 35.7281 -99.9764 109° East 485 558 45,000  Level Albuquerque Center
Mon 02:19:12 PM 35.6828 -99.8219 110° East 484 557 45,000  Level Albuquerque Center
Mon 02:20:14 PM 35.6383 -99.6644 109° East 486 559 45,000  Level Albuquerque Center
Mon 02:21:05 PM 35.5889 -99.5039 111° Southeast 492 566 45,000  Level Fort Worth Center
Mon 02:22:05 PM 35.5433 -99.3472 110° East 492 566 45,000  Level Fort Worth Center
Mon 02:23:05 PM 35.4978 -99.1906 110° East 492 566 45,000  Level Fort Worth Center
Mon 02:24:05 PM 35.4519 -99.0317 109° East 492 566 45,000  Level Fort Worth Center
Mon 02:25:05 PM 35.4081 -98.8756 109° East 492 566 45,000  Level Fort Worth Center
Mon 02:26:05 PM 35.3619 -98.7194 110° East 492 566 45,000  Level Fort Worth Center
Mon 02:27:05 PM 35.3153 -98.5686 111° Southeast 487 560 45,000  Level Fort Worth Center
Mon 02:28:05 PM 35.2747 -98.4333 110° East 478 550 45,000  Level Fort Worth Center
Mon 02:29:05 PM 35.2281 -98.2803 110° East 473 544 45,000  Level Fort Worth Center
Mon 02:30:05 PM 35.1811 -98.1272 111° Southeast 473 544 45,000  Level Fort Worth Center
Mon 02:31:05 PM 35.1339 -97.9719 110° East 478 550 45,000  Level Fort Worth Center
Mon 02:32:05 PM 35.0864 -97.8194 111° Southeast 478 550 45,000  Level Fort Worth Center
Mon 02:33:05 PM 35.0389 -97.6672 111° Southeast 478 550 45,000  Level Fort Worth Center
Mon 02:34:05 PM 34.9892 -97.5125 111° Southeast 478 550 45,000  Level Fort Worth Center
Mon 02:35:05 PM 34.9369 -97.3400 110° East 484 557 45,000  Level Fort Worth Center
Mon 02:36:05 PM 34.8908 -97.1883 110° East 484 557 45,000  Level Fort Worth Center
Mon 02:37:05 PM 34.8425 -97.0367 111° Southeast 489 563 45,000  Level Fort Worth Center
Mon 02:38:05 PM 34.7939 -96.8800 111° Southeast 489 563 45,000  Level Fort Worth Center
Mon 02:39:05 PM 34.7453 -96.7261 111° Southeast 489 563 45,000  Level Fort Worth Center
Mon 02:40:05 PM 34.6964 -96.5725 111° Southeast 489 563 45,000  Level Fort Worth Center
Mon 02:41:05 PM 34.6472 -96.4214 112° Southeast 489 563 45,000  Level Fort Worth Center
Mon 02:42:05 PM 34.5981 -96.2631 111° Southeast 489 563 45,000  Level Fort Worth Center
Mon 02:43:05 PM 34.5483 -96.1125 112° Southeast 489 563 45,000  Level Fort Worth Center
Mon 02:44:05 PM 34.4989 -95.9594 111° Southeast 489 563 45,000  Level Fort Worth Center
Mon 02:45:05 PM 34.4489 -95.8067 112° Southeast 489 563 45,000  Level Fort Worth Center
Mon 02:46:05 PM 34.3989 -95.6542 112° Southeast 489 563 45,000  Level Fort Worth Center
Mon 02:47:05 PM 34.3531 -95.5067 111° Southeast 489 563 45,000  Level Fort Worth Center
Mon 02:48:05 PM 34.3047 -95.3544 111° Southeast 484 557 45,000  Level Fort Worth Center
Mon 02:49:05 PM 34.2542 -95.2075 113° Southeast 484 557 45,000  Level Fort Worth Center
Mon 02:50:05 PM 34.2033 -95.0581 112° Southeast 484 557 45,000  Level Fort Worth Center
Mon 02:51:05 PM 34.1567 -94.9061 110° East 479 551 45,000  Level Fort Worth Center
Mon 02:52:05 PM 34.1036 -94.7572 113° Southeast 479 551 45,000  Level Fort Worth Center
Mon 02:53:05 PM 34.0544 -94.6083 112° Southeast 479 551 45,000  Level Fort Worth Center
Mon 02:54:05 PM 34.0031 -94.4572 112° Southeast 479 551 45,000  Level Fort Worth Center
Mon 02:55:05 PM 33.9558 -94.3261 113° Southeast 479 551 45,000  Level Fort Worth Center
Mon 02:56:05 PM 33.9064 -94.1778 112° Southeast 479 551 45,000  Level Fort Worth Center
Mon 02:57:05 PM 33.8544 -94.0269 112° Southeast 479 551 45,000  Level Fort Worth Center
Mon 02:58:05 PM 33.8064 -93.8789 111° Southeast 479 551 45,000  Level Fort Worth Center
Mon 02:59:05 PM 33.7542 -93.7311 113° Southeast 479 551 45,000  Level Fort Worth Center
Mon 03:00:05 PM 33.6997 -93.5811 114° Southeast 479 551 45,000  Level Fort Worth Center
Mon 03:01:05 PM 33.6514 -93.4361 112° Southeast 472 543 45,000  Level Fort Worth Center
Mon 03:02:05 PM 33.5986 -93.2914 114° Southeast 472 543 45,000  Level Fort Worth Center
Mon 03:03:05 PM 33.5458 -93.1442 113° Southeast 472 543 45,000  Level Fort Worth Center
Mon 03:04:05 PM 33.4947 -92.9997 113° Southeast 477 549 45,000  Level Fort Worth Center
Mon 03:05:05 PM 33.4394 -92.8533 114° Southeast 477 549 45,000  Level Fort Worth Center
Mon 03:06:05 PM 33.3925 -92.7114 112° Southeast 470 541 45,000  Level Fort Worth Center
Mon 03:07:05 PM 33.3389 -92.5650 114° Southeast 470 541 45,000  Level Fort Worth Center
Mon 03:08:05 PM 33.2872 -92.4189 113° Southeast 470 541 45,000  Level Fort Worth Center
Mon 03:09:14 PM 33.2153 -92.2394 116° Southeast 485 558 45,000  Level Memphis Center
Mon 03:10:14 PM 33.1672 -92.0944 112° Southeast 485 558 45,000  Level Memphis Center
Mon 03:11:14 PM 33.1064 -91.9519 117° Southeast 479 551 45,000  Level Memphis Center
Mon 03:12:14 PM 33.0519 -91.8072 114° Southeast 479 551 45,000  Level Memphis Center
Mon 03:13:14 PM 33.0033 -91.6725 113° Southeast 484 557 45,000  Level Memphis Center
Mon 03:14:14 PM 32.9503 -91.5308 114° Southeast 484 557 45,000  Level Memphis Center
Mon 03:15:14 PM 32.8953 -91.3842 114° Southeast 484 557 45,000  Level Memphis Center
Mon 03:16:14 PM 32.8400 -91.2400 114° Southeast 484 557 45,000  Level Memphis Center
Mon 03:17:14 PM 32.7867 -91.0936 113° Southeast 479 551 45,000  Level Memphis Center
Mon 03:18:14 PM 32.7311 -90.9500 115° Southeast 474 545 45,000  Level Memphis Center
Mon 03:19:14 PM 32.6775 -90.8064 114° Southeast 474 545 45,000  Level Memphis Center
Mon 03:20:14 PM 32.6194 -90.6606 115° Southeast 479 551 45,000  Level Memphis Center
Mon 03:21:14 PM 32.5653 -90.5175 114° Southeast 479 551 45,000  Level Memphis Center
Mon 03:22:14 PM 32.5092 -90.3722 115° Southeast 479 551 45,000  Level Memphis Center
Mon 03:23:14 PM 32.4547 -90.2292 114° Southeast 479 551 45,000  Level Memphis Center
Mon 03:24:14 PM 32.3919 -90.0694 115° Southeast 479 551 45,000  Level Memphis Center
Mon 03:25:14 PM 32.3350 -89.9269 115° Southeast 479 551 45,000  Level Memphis Center
Mon 03:26:14 PM 32.2803 -89.7822 114° Southeast 479 551 45,000  Level Memphis Center
Mon 03:27:14 PM 32.2253 -89.6403 115° Southeast 479 551 45,000  Level Memphis Center
Mon 03:28:14 PM 32.1678 -89.4958 115° Southeast 479 551 45,000  Level Memphis Center
Mon 03:29:14 PM 32.1125 -89.3542 115° Southeast 479 551 45,000  Level Memphis Center
Mon 03:30:14 PM 32.0550 -89.2128 116° Southeast 479 551 45,000  Level Memphis Center
Mon 03:31:14 PM 31.9972 -89.0689 115° Southeast 479 551 45,000 100 Level Memphis Center
Mon 03:32:14 PM 31.9414 -88.9253 115° Southeast 479 551 45,200 350 Climbing Memphis Center
Mon 03:33:14 PM 31.8833 -88.7892 117° Southeast 469 540 45,700 495 Climbing Memphis Center
Mon 03:33:51 PM 31.8500 -88.7050 115° Southeast 481 554 46,000 424 Climbing Houston Center
Mon 03:34:53 PM 31.7944 -88.5664 115° Southeast 471 542 46,400 435 Climbing Houston Center
Mon 03:35:55 PM 31.7372 -88.4272 116° Southeast 470 541 46,900 290 Climbing Houston Center
Mon 03:36:57 PM 31.6811 -88.2892 116° Southeast 468 539 47,000 48 Climbing Houston Center
Mon 03:37:59 PM 31.6250 -88.1494 115° Southeast 471 542 47,000  Level Houston Center
Mon 03:39:00 PM 31.5575 -88.0119 120° Southeast 482 555 47,000  Level Houston Center
Mon 03:40:02 PM 31.4783 -87.8422 119° Southeast 489 563 47,000  Level Houston Center
Mon 03:41:04 PM 31.4178 -87.6992 116° Southeast 489 563 47,000  Level Houston Center
Mon 03:42:06 PM 31.3633 -87.5556 114° Southeast 482 555 47,000  Level Houston Center
Mon 03:43:08 PM 31.3161 -87.4103 111° Southeast 478 550 47,000  Level Houston Center
Mon 03:44:10 PM 31.2592 -87.2700 115° Southeast 477 549 47,000  Level Houston Center
Mon 03:45:12 PM 31.1983 -87.1314 117° Southeast 479 551 47,000  Level Houston Center
Mon 03:46:14 PM 31.1333 -86.9797 117° Southeast 480 552 47,000  Level Houston Center
Mon 03:47:16 PM 31.0736 -86.8406 117° Southeast 481 554 47,000  Level Houston Center
Mon 03:48:18 PM 31.0150 -86.7008 116° Southeast 480 552 47,000  Level Houston Center
Mon 03:49:20 PM 30.9544 -86.5603 117° Southeast 483 556 47,000  Level Houston Center
Mon 03:50:22 PM 30.8808 -86.3939 117° Southeast 482 555 47,000  Level Houston Center
Mon 03:51:27 PM 30.8214 -86.2525 116° Southeast 481 554 47,000  Level Jacksonville Center
Mon 03:52:27 PM 30.7581 -86.1150 118° Southeast 476 548 47,000  Level Jacksonville Center
Mon 03:53:28 PM 30.6989 -85.9753 116° Southeast 476 548 47,000  Level Jacksonville Center
Mon 03:54:27 PM 30.6439 -85.8311 114° Southeast 481 554 47,000  Level Jacksonville Center
Mon 03:55:27 PM 30.5867 -85.6869 115° Southeast 481 554 47,000  Level Jacksonville Center
Mon 03:56:27 PM 30.5247 -85.5500 118° Southeast 481 554 47,000  Level Jacksonville Center
Mon 03:57:27 PM 30.4631 -85.4086 117° Southeast 481 554 47,000  Level Jacksonville Center
Mon 03:58:27 PM 30.3992 -85.2550 116° Southeast 481 554 47,000  Level Jacksonville Center
Mon 03:59:27 PM 30.3369 -85.1142 117° Southeast 481 554 47,000  Level Jacksonville Center
Mon 04:00:27 PM 30.2703 -84.9756 119° Southeast 481 554 47,000  Level Jacksonville Center
Mon 04:01:27 PM 30.1994 -84.8417 121° Southeast 486 559 47,000  Level Jacksonville Center
Mon 04:02:27 PM 30.1347 -84.7036 118° Southeast 491 565 47,000  Level Jacksonville Center
Mon 04:03:27 PM 30.0697 -84.5678 119° Southeast 491 565 47,000  Level Jacksonville Center
Mon 04:04:27 PM 30.0089 -84.4253 116° Southeast 486 559 47,000  Level Jacksonville Center
Mon 04:05:27 PM 29.9436 -84.2878 119° Southeast 486 559 47,000  Level Jacksonville Center
Mon 04:06:27 PM 29.8886 -84.1669 118° Southeast 472 543 47,000  Level Jacksonville Center
Mon 04:07:27 PM 29.8231 -84.0272 118° Southeast 477 549 47,000  Level Jacksonville Center
Mon 04:08:27 PM 29.7594 -83.8856 117° Southeast 487 560 47,000  Level Jacksonville Center
Mon 04:09:27 PM 29.6936 -83.7461 118° Southeast 487 560 47,000  Level Jacksonville Center
Mon 04:10:27 PM 29.6278 -83.6069 119° Southeast 487 560 47,000  Level Jacksonville Center
Mon 04:11:27 PM 29.5636 -83.4681 118° Southeast 487 560 47,000  Level Jacksonville Center
Mon 04:12:27 PM 29.4975 -83.3292 119° Southeast 492 566 47,000  Level Jacksonville Center
Mon 04:13:27 PM 29.4289 -83.1906 120° Southeast 492 566 47,000  Level Jacksonville Center
Mon 04:14:27 PM 29.3644 -83.0497 118° Southeast 492 566 47,000 -200 Level Jacksonville Center
Mon 04:15:27 PM 29.3000 -82.9092 118° Southeast 498 573 46,600 -650 Descending Jacksonville Center
Mon 04:16:27 PM 29.2353 -82.7711 118° Southeast 498 573 45,700 -800 Descending Jacksonville Center
Mon 04:17:27 PM 29.1681 -82.6311 119° Southeast 498 573 45,000 -350 Descending Jacksonville Center
Mon 04:18:27 PM 29.1031 -82.4908 118° Southeast 498 573 45,000  Level Jacksonville Center
Mon 04:19:27 PM 29.0336 -82.3536 120° Southeast 498 573 45,000  Level Jacksonville Center
Mon 04:20:27 PM 28.9661 -82.2114 118° Southeast 498 573 45,000  Level Jacksonville Center
Mon 04:21:27 PM 28.9050 -82.0742 117° Southeast 493 567 45,000  Level Jacksonville Center
Mon 04:22:27 PM 28.8350 -81.9328 119° Southeast 498 573 45,000  Level Jacksonville Center
Mon 04:24:42 PM 28.6747 -81.6117 120° Southeast 511 588 45,000  Level Miami Center
Mon 04:25:42 PM 28.6061 -81.4742 120° Southeast 506 582 45,000  Level Miami Center
Mon 04:26:42 PM 28.5517 -81.3514 117° Southeast 493 567 45,000  Level Miami Center
Mon 04:27:42 PM 28.4658 -81.2250 128° Southeast 498 573 45,000  Level Miami Center
Mon 04:28:42 PM 28.3797 -81.1014 128° Southeast 498 573 45,000  Level Miami Center
Mon 04:29:42 PM 28.2917 -80.9756 128° Southeast 503 579 45,000  Level Miami Center
Mon 04:30:42 PM 28.2075 -80.8500 127° Southeast 503 579 45,000  Level Miami Center
Mon 04:31:42 PM 28.1211 -80.7269 129° Southeast 508 585 45,000  Level Miami Center
Mon 04:32:42 PM 28.0539 -80.5928 120° Southeast 496 571 45,000  Level Miami Center
Mon 04:33:42 PM 27.9869 -80.4378 116° Southeast 496 571 45,000  Level Miami Center
Mon 04:34:42 PM 27.9278 -80.2950 115° Southeast 491 565 45,000  Level Miami Center
Mon 04:35:42 PM 27.8742 -80.1711 116° Southeast 491 565 45,000  Level Miami Center
Mon 04:36:42 PM 27.8147 -80.0308 116° Southeast 491 565 45,000 -1,450 Level Miami Center
Mon 04:37:42 PM 27.7531 -79.8839 115° Southeast 491 565 42,100 -3,000 Descending Miami Center
Mon 04:38:42 PM 27.6953 -79.7508 116° Southeast 473 544 39,000 -2,500 Descending Miami Center
Mon 04:39:42 PM 27.6394 -79.6158 115° Southeast 468 539 37,100 -1,500 Descending Miami Center
Mon 04:40:42 PM 27.5856 -79.4950 117° Southeast 474 545 36,000 -800 Descending Miami Center
Mon 04:41:42 PM 27.5192 -79.3389 116° Southeast 487 560 35,500 -1,250 Descending Miami Center
Mon 04:42:42 PM 27.4608 -79.2042 116° Southeast 487 560 33,500 -2,200 Descending Miami Center
Mon 04:43:42 PM 27.4025 -79.0697 116° Southeast 482 555 31,100 -2,500 Descending Miami Center
Mon 04:44:42 PM 27.3458 -78.9472 117° Southeast 477 549 28,500 -2,550 Descending Miami Center
Mon 04:45:42 PM 27.2892 -78.8128 115° Southeast 477 549 26,000 -2,600 Descending Miami Center
Mon 04:46:42 PM 27.2325 -78.6811 116° Southeast 470 541 23,300 -2,800 Descending Miami Center
Mon 04:47:42 PM 27.1756 -78.5542 117° Southeast 464 534 20,400 -2,900 Descending Miami Center
Mon 04:48:42 PM 27.1247 -78.4319 115° Southeast 446 513 17,500 -2,850 Descending Miami Center
Mon 04:49:42 PM 27.0653 -78.3192 121° Southeast 432 497 14,700 -2,350 Descending Miami Center
Mon 04:50:42 PM 27.0100 -78.2111 120° Southeast 415 478 12,800 -1,850 Descending Miami Center
Mon 04:51:42 PM 26.9606 -78.1175 121° Southeast 382 440 11,000 -1,800 Descending Miami Center
Mon 04:52:42 PM 26.9028 -78.0561 137° Southeast 306 352 9,200 -1,600 Descending Miami Center
Mon 04:53:42 PM 26.8489 -77.9928 134° Southeast 296 341 7,800 -1,100 Descending Miami Center
Mon 04:54:42 PM 26.8181 -77.9156 114° Southeast 280 322 7,000 -400 Descending Miami Center
Mon 04:55:42 PM 26.7872 -77.8433 116° Southeast 264 304 7,000  Level Miami Center
Mon 04:56:42 PM 26.7606 -77.7617 110° East 258 297 7,000  Level Miami Center
Mon 04:57:42 PM 26.7339 -77.6939 114° Southeast 258 297 7,000  Level Miami Center
Mon 04:58:42 PM 26.7050 -77.6147 112° Southeast 256 295 7,000  Level Miami Center
Mon 04:59:42 PM 26.6700 -77.5375 117° Southeast 262 302 7,000  Level Miami Center
Mon 05:00:42 PM 26.6328 -77.4606 118° Southeast 254 292 7,000  Level Miami Center
Mon 05:01:42 PM 26.5994 -77.3886 117° Southeast 254 292 7,000  Level Miami Center

Login

Don't have an account? Register now (free) for customized features, flight alerts, and more!